x

Folly Island, Sc (fbis1) Weather Station

2:00pm - Mon 15th Oct 2018 All times are EDT. -4 hours from GMT.

  • Wind
    9mph, 10mph gusts
  • Air Temp 80°f
  • Sea Pressure 1021.5mb
  • Folly Island, Sc
  • Folly Island, Sc

More Historic Weather Station data

Upgrade to MSW Pro to gain access to the past 30 days of data for over 8000 Wavebouys and Weather Stations around the globe.

Join

Comparision Forecast

View Surf forecast
   
Mon 10/15 2:00pm 9 10 mph 1021.5mb 80f
1:00pm 9 10 mph 1022.1mb 80f
12:00pm 9 10 mph 1022.5mb 80f
11:00am 11 13 mph 1022.7mb 80f
10:00am 13 13 mph 1022.5mb 80f
9:00am 13 15 mph 1022.3mb 80f
8:00am 14 15 mph 1022mb 79f
7:00am 14 15 mph 1021.7mb 79f
6:00am 14 15 mph 1021.1mb 79f
5:00am 11 13 mph 1020.6mb 79f
4:00am 11 13 mph 1021mb 80f
3:00am 9 10 mph 1021.4mb 79f
2:00am 6 7 mph 1021.2mb 79f
1:00am 8 9 mph 1021.2mb 79f
12:00am 10 11 mph 1021.5mb 79f
Sun 10/14 11:00pm 10 11 mph 1021.6mb 79f
10:00pm 11 13 mph 1021.7mb 79f
9:00pm 9 10 mph 1021.6mb 79f
8:00pm 13 13 mph 1020.9mb 79f
7:00pm 13 14 mph 1020.4mb 78f
6:00pm 13 14 mph 1020.2mb 79f
5:00pm 11 14 mph 1020.2mb 79f
4:00pm 11 13 mph 1020.1mb 79f
3:00pm 11 14 mph 1020mb 78f
2:00pm 10 11 mph 1020.5mb 79f
1:00pm 9 10 mph 1021.1mb 79f
12:00pm 9 10 mph 1021mb 78f
11:00am 8 10 mph 1020.9mb 77f
10:00am 7 9 mph 1020.7mb 75f
9:00am 8 9 mph 1020.1mb 71f
8:00am 5 7 mph 1019.4mb 69f
7:00am 6 7 mph 1019mb 68f
6:00am  -  3 mph 1018.4mb 74f
4:00am 6 8 mph 1017.7mb 70f
3:00am 6 7 mph 1017.8mb 70f
2:00am 8 10 mph 1017.9mb 72f
1:00am 8 10 mph 1017.9mb 70f
12:00am 7 10 mph 1017.8mb 71f
Sat 10/13 11:00pm 10 11 mph 1017.2mb 72f
10:00pm 8 10 mph 1017mb 73f
9:00pm 8 10 mph 1016.5mb 73f
8:00pm 7 9 mph 1015.4mb 74f
7:00pm 8 9 mph 1014.6mb 76f
6:00pm 8 9 mph 1014mb 77f
5:00pm 6 8 mph 1013.7mb 80f
4:00pm 3 5 mph 1013.4mb 80f
3:00pm 6 8 mph 1013.3mb 80f
2:00pm 5 7 mph 1013.5mb 79f
1:00pm 7 10 mph 1014.1mb 77f
12:00pm 6 10 mph 1014.3mb 76f
10:00am 6 9 mph 1013.7mb 72f
9:00am 3 5 mph 1013.3mb 67f
8:00am 2 3 mph 1012.6mb 62f
7:00am 3 6 mph 1012.5mb 61f
6:00am 2 3 mph 1011.8mb 62f
5:00am 5 6 mph 1011mb 63f
4:00am 6 6 mph 1010.6mb 65f
3:00am 2 2 mph 1010.9mb 66f
2:00am 3 5 mph 1010.9mb 67f
1:00am  -  1 mph 1011.1mb 68f
12:00am 5 6 mph 1011.4mb 69f
Fri 10/12 11:00pm 3 7 mph 1011.5mb 69f
10:00pm 5 6 mph 1011.2mb 69f
9:00pm 3 5 mph 1010.8mb 71f
8:00pm 5 6 mph 1010.3mb 71f
7:00pm 6 7 mph 1009.7mb 72f
6:00pm 9 13 mph 1009.8mb 74f
5:00pm 9 11 mph 1009.8mb 74f
4:00pm 8 10 mph 1009.6mb 74f
3:00pm 8 9 mph 1009.9mb 73f
2:00pm 7 8 mph 1010.4mb 72f
1:00pm 5 8 mph 1011.2mb 74f
12:00pm 6 7 mph 1011.3mb 71f
11:00am 9 11 mph 1011.7mb 70f
10:00am 14 16 mph 1011.8mb 69f
9:00am 14 17 mph 1011.7mb 68f
8:00am 9 13 mph 1011.1mb 66f
7:00am 7 9 mph 1010.7mb 65f
6:00am 3 6 mph 1009.9mb 67f
5:00am 5 7 mph 1009.4mb 68f
4:00am 5 7 mph 1008.6mb 70f
3:00am 3 5 mph 1008.2mb 72f
2:00am 5 7 mph 1008.1mb 74f
1:00am 8 11 mph 1007.9mb 76f
12:00am 6 9 mph 1008mb 77f
Thu 10/11 11:00pm 9 11 mph 1007.8mb 79f
10:00pm 7 9 mph 1007.4mb 79f
9:00pm 7 10 mph 1007mb 80f
8:00pm 6 7 mph 1006.2mb 81f